createdAt,value
2018-07-22T00:00:21.985Z,34.70
2018-07-22T00:02:50.523Z,35.30
2018-07-22T00:05:18.839Z,36.40
2018-07-22T00:07:47.528Z,38.03
2018-07-22T00:10:23.162Z,32.95
2018-07-22T00:12:51.507Z,39.37
2018-07-22T00:15:20.452Z,32.13
2018-07-22T00:17:48.824Z,33.33
2018-07-22T00:20:18.178Z,33.03
2018-07-22T00:22:46.966Z,37.63
2018-07-22T00:25:15.904Z,36.93
2018-07-22T00:27:44.695Z,34.80
2018-07-22T00:30:13.446Z,33.80
2018-07-22T00:32:42.672Z,32.60
2018-07-22T00:35:12.183Z,31.67
2018-07-22T00:37:41.366Z,32.27
2018-07-22T00:40:11.515Z,38.00
2018-07-22T00:42:40.499Z,32.83
2018-07-22T00:45:11.572Z,34.37
2018-07-22T00:47:40.844Z,33.78
2018-07-22T00:50:09.444Z,35.43
2018-07-22T00:52:38.703Z,29.72
2018-07-22T00:55:07.623Z,29.23
2018-07-22T00:57:36.131Z,33.60
2018-07-22T01:00:05.517Z,31.30
2018-07-22T01:02:34.040Z,30.37
2018-07-22T01:05:02.640Z,40.05
2018-07-22T01:07:31.609Z,30.30
2018-07-22T01:09:59.916Z,25.97
2018-07-22T01:12:28.633Z,28.80
2018-07-22T01:14:57.433Z,32.50
2018-07-22T01:17:25.890Z,29.30
2018-07-22T01:19:54.344Z,25.00
2018-07-22T01:22:23.024Z,20.57
2018-07-22T01:24:51.663Z,27.10
2018-07-22T01:27:20.010Z,24.97
2018-07-22T01:29:48.473Z,28.07
2018-07-22T01:32:16.783Z,27.60
2018-07-22T01:34:45.815Z,30.80
2018-07-22T01:37:14.148Z,30.53
2018-07-22T01:39:42.464Z,30.83
2018-07-22T01:42:10.764Z,33.77
2018-07-22T01:44:39.080Z,26.10
2018-07-22T01:47:08.220Z,30.72
2018-07-22T01:49:36.870Z,27.45
2018-07-22T01:52:05.775Z,32.80
2018-07-22T01:54:34.056Z,29.33
2018-07-22T01:57:02.596Z,28.73
2018-07-22T01:59:31.244Z,31.83
2018-07-22T02:01:59.560Z,29.70
2018-07-22T02:04:28.057Z,29.20
2018-07-22T02:06:56.641Z,30.90
2018-07-22T02:09:24.958Z,34.20
2018-07-22T02:11:53.492Z,33.30
2018-07-22T02:14:22.315Z,38.73
2018-07-22T02:16:50.957Z,30.73
2018-07-22T02:19:19.457Z,39.07
2018-07-22T02:21:48.200Z,30.60
2018-07-22T02:24:16.829Z,31.10
2018-07-22T02:26:45.610Z,39.80
2018-07-22T02:29:13.907Z,43.30
2018-07-22T02:31:42.546Z,35.40
2018-07-22T02:34:10.824Z,36.37
2018-07-22T02:36:39.800Z,43.68
2018-07-22T02:39:10.081Z,37.23
2018-07-22T02:41:38.497Z,42.30
2018-07-22T02:44:07.092Z,38.65
2018-07-22T02:46:35.996Z,36.43
2018-07-22T02:49:04.934Z,35.17
2018-07-22T02:51:33.314Z,35.83
2018-07-22T02:54:01.812Z,41.07
2018-07-22T02:56:30.106Z,30.80
2018-07-22T02:59:02.165Z,36.33
2018-07-22T03:01:30.472Z,33.33
2018-07-22T03:03:58.801Z,36.90
2018-07-22T03:06:27.176Z,38.27
2018-07-22T03:08:55.468Z,36.60
2018-07-22T03:11:23.544Z,35.43
2018-07-22T03:13:51.892Z,32.50
2018-07-22T03:16:20.235Z,32.57
2018-07-22T03:18:48.775Z,37.40
2018-07-22T03:21:17.403Z,27.20
2018-07-22T03:23:45.981Z,32.30
2018-07-22T03:26:14.596Z,28.20
2018-07-22T03:28:43.036Z,30.50
2018-07-22T03:31:11.334Z,24.67
2018-07-22T03:33:40.304Z,31.23
2018-07-22T03:36:08.607Z,27.07
2018-07-22T03:38:36.899Z,26.07
2018-07-22T03:41:05.418Z,29.20
2018-07-22T03:43:33.875Z,27.30
2018-07-22T03:46:02.788Z,26.70
2018-07-22T03:48:31.343Z,34.33
2018-07-22T03:50:59.743Z,26.43
2018-07-22T03:53:28.495Z,29.93
2018-07-22T03:55:57.103Z,35.13
2018-07-22T03:58:25.615Z,35.07
2018-07-22T04:00:54.352Z,35.07
2018-07-22T04:03:22.928Z,35.52
2018-07-22T04:05:51.248Z,37.23
2018-07-22T04:08:19.831Z,31.48
2018-07-22T04:10:48.315Z,34.83
2018-07-22T04:13:16.692Z,41.33
2018-07-22T04:15:45.172Z,36.57
2018-07-22T04:18:13.471Z,39.93
2018-07-22T04:20:41.772Z,42.70
2018-07-22T04:23:10.346Z,39.33
2018-07-22T04:25:38.918Z,45.20
2018-07-22T04:28:07.519Z,45.33
2018-07-22T04:30:36.143Z,42.47
2018-07-22T04:33:04.707Z,48.60
2018-07-22T04:35:33.004Z,43.53
2018-07-22T04:38:01.557Z,35.87
2018-07-22T04:40:29.876Z,39.37
2018-07-22T04:42:58.567Z,44.17
2018-07-22T04:45:26.966Z,40.30
2018-07-22T04:47:55.308Z,44.90
2018-07-22T04:50:23.951Z,43.57
2018-07-22T04:52:52.448Z,42.53
2018-07-22T04:55:20.766Z,45.00
2018-07-22T04:57:49.057Z,43.50
2018-07-22T05:00:17.805Z,42.57
2018-07-22T05:02:46.104Z,49.37
2018-07-22T05:05:15.089Z,48.55
2018-07-22T05:07:43.727Z,40.00
2018-07-22T05:10:12.461Z,36.73
2018-07-22T05:12:41.035Z,31.55
2018-07-22T05:15:09.711Z,29.80
2018-07-22T05:17:38.045Z,30.13
2018-07-22T05:20:06.492Z,31.10
2018-07-22T05:22:35.004Z,31.27
2018-07-22T05:25:03.827Z,30.40
2018-07-22T05:27:32.126Z,29.77
2018-07-22T05:30:00.423Z,28.23
2018-07-22T05:32:28.981Z,31.80
2018-07-22T05:34:57.586Z,32.07
2018-07-22T05:37:25.899Z,26.90
2018-07-22T05:39:54.436Z,25.50
2018-07-22T05:42:23.280Z,28.93
2018-07-22T05:44:52.134Z,29.93
2018-07-22T05:47:21.479Z,24.27
2018-07-22T05:49:49.819Z,23.80
2018-07-22T05:52:18.812Z,26.55
2018-07-22T05:54:47.232Z,22.40
2018-07-22T05:57:15.984Z,25.35
2018-07-22T05:59:44.396Z,26.30
2018-07-22T06:02:13.429Z,24.67
2018-07-22T06:04:42.004Z,26.07
2018-07-22T06:07:10.373Z,23.63
2018-07-22T06:09:38.707Z,24.40
2018-07-22T06:12:07.640Z,23.87
2018-07-22T06:14:36.396Z,23.47
2018-07-22T06:17:04.956Z,24.27
2018-07-22T06:19:33.598Z,23.77
2018-07-22T06:22:02.235Z,24.90
2018-07-22T06:24:30.802Z,27.50
2018-07-22T06:26:59.413Z,29.00
2018-07-22T06:29:27.964Z,27.20
2018-07-22T06:31:56.588Z,30.07
2018-07-22T06:34:25.087Z,28.40
2018-07-22T06:36:53.644Z,27.97
2018-07-22T06:39:22.212Z,28.90
2018-07-22T06:41:51.235Z,29.30
2018-07-22T06:44:19.846Z,26.30
2018-07-22T06:46:48.420Z,27.98
2018-07-22T06:49:16.954Z,27.33
2018-07-22T06:51:45.760Z,20.33
2018-07-22T06:54:14.383Z,19.42
2018-07-22T06:56:42.949Z,15.70
2018-07-22T06:59:11.623Z,22.70
2018-07-22T07:01:40.128Z,14.57
2018-07-22T07:04:08.603Z,15.17
2018-07-22T07:06:37.102Z,13.30
2018-07-22T07:09:08.500Z,19.40
2018-07-22T07:11:37.402Z,17.42
2018-07-22T07:14:05.791Z,11.83
2018-07-22T07:16:34.828Z,14.93
2018-07-22T07:19:03.226Z,17.10
2018-07-22T07:21:31.550Z,12.50
2018-07-22T07:24:00.524Z,14.70
2018-07-22T07:26:29.232Z,17.33
2018-07-22T07:28:57.990Z,17.70
2018-07-22T07:31:26.310Z,19.00
2018-07-22T07:33:55.724Z,19.60
2018-07-22T07:36:24.136Z,14.80
2018-07-22T07:38:52.501Z,17.97
2018-07-22T07:41:20.808Z,17.97
2018-07-22T07:43:49.112Z,25.57
2018-07-22T07:46:17.743Z,19.97
2018-07-22T07:48:46.093Z,18.47
2018-07-22T07:51:14.519Z,18.77
2018-07-22T07:53:43.107Z,21.62
2018-07-22T07:56:11.266Z,18.50
2018-07-22T07:58:40.020Z,22.50
2018-07-22T08:01:08.332Z,29.90
2018-07-22T08:03:37.237Z,18.12
2018-07-22T08:06:05.778Z,20.90
2018-07-22T08:08:34.099Z,17.93
2018-07-22T08:11:02.732Z,15.60
2018-07-22T08:13:31.392Z,16.90
2018-07-22T08:15:59.848Z,15.17
2018-07-22T08:18:28.460Z,15.08
2018-07-22T08:20:57.088Z,14.30
2018-07-22T08:23:25.516Z,16.60
2018-07-22T08:25:54.002Z,13.23
2018-07-22T08:28:33.935Z,15.55
2018-07-22T08:31:02.468Z,13.20
2018-07-22T08:33:31.387Z,14.63
2018-07-22T08:35:59.983Z,17.77
2018-07-22T08:38:28.632Z,18.10
2018-07-22T08:40:57.481Z,17.62
2018-07-22T08:43:26.477Z,21.15
2018-07-22T08:45:55.671Z,17.07
2018-07-22T08:48:24.024Z,16.33
2018-07-22T08:50:52.996Z,15.20
2018-07-22T08:53:21.669Z,19.03
2018-07-22T08:55:51.448Z,15.15
2018-07-22T08:58:20.019Z,15.53
2018-07-22T09:00:48.361Z,19.27
2018-07-22T09:03:16.680Z,18.83
2018-07-22T09:05:45.040Z,21.30
2018-07-22T09:08:13.693Z,16.95
2018-07-22T09:10:42.804Z,15.80
2018-07-22T09:13:11.260Z,15.93
2018-07-22T09:15:39.568Z,14.47
2018-07-22T09:18:08.183Z,18.17
2018-07-22T09:20:36.669Z,16.43
2018-07-22T09:23:05.020Z,20.60
2018-07-22T09:25:33.697Z,17.77
2018-07-22T09:28:02.146Z,16.23
2018-07-22T09:30:30.916Z,21.42
2018-07-22T09:32:59.675Z,15.80
2018-07-22T09:35:28.283Z,22.30
2018-07-22T09:37:56.889Z,17.77
2018-07-22T09:40:27.675Z,19.82
2018-07-22T09:42:56.600Z,21.43
2018-07-22T09:45:25.065Z,22.33
2018-07-22T09:47:54.009Z,23.20
2018-07-22T09:50:23.045Z,20.70
2018-07-22T09:52:51.395Z,20.23
2018-07-22T09:55:20.243Z,22.03
2018-07-22T09:57:48.769Z,22.20
2018-07-22T10:01:19.963Z,20.10
2018-07-22T10:03:48.662Z,27.70
2018-07-22T10:06:17.007Z,26.20
2018-07-22T10:08:45.655Z,23.32
2018-07-22T10:11:14.359Z,26.73
2018-07-22T10:13:42.780Z,25.27
2018-07-22T10:16:11.445Z,25.90
2018-07-22T10:18:40.131Z,31.37
2018-07-22T10:21:08.716Z,32.55
2018-07-22T10:23:37.482Z,25.33
2018-07-22T10:26:06.152Z,25.10
2018-07-22T10:28:34.597Z,24.00
2018-07-22T10:31:03.384Z,25.40
2018-07-22T10:33:32.041Z,28.57
2018-07-22T10:36:00.993Z,27.15
2018-07-22T10:38:29.315Z,31.07
2018-07-22T10:40:57.979Z,30.70
2018-07-22T10:43:26.572Z,29.50
2018-07-22T10:45:55.332Z,34.03
2018-07-22T10:48:23.836Z,35.77
2018-07-22T10:50:52.368Z,32.85
2018-07-22T10:53:20.697Z,30.70
2018-07-22T10:55:49.309Z,28.37
2018-07-22T10:58:17.759Z,25.20
2018-07-22T11:00:46.593Z,22.57
2018-07-22T11:03:14.990Z,23.23
2018-07-22T11:05:43.736Z,23.40
2018-07-22T11:08:12.036Z,22.23
2018-07-22T11:10:40.349Z,20.43
2018-07-22T11:13:08.873Z,19.43
2018-07-22T11:15:38.130Z,24.87
2018-07-22T11:18:06.423Z,20.77
2018-07-22T11:20:34.951Z,19.27
2018-07-22T11:23:03.938Z,22.30
2018-07-22T11:25:33.199Z,18.93
2018-07-22T11:28:01.745Z,23.70
2018-07-22T11:30:30.605Z,22.97
2018-07-22T11:32:58.915Z,23.53
2018-07-22T11:35:27.769Z,22.20
2018-07-22T11:37:56.345Z,26.75
2018-07-22T11:40:24.687Z,20.90
2018-07-22T11:42:53.013Z,23.87
2018-07-22T11:45:22.304Z,18.47
2018-07-22T11:47:51.838Z,18.73
2018-07-22T11:50:20.384Z,17.40
2018-07-22T11:52:48.867Z,20.40
2018-07-22T11:55:17.514Z,19.20
2018-07-22T11:57:46.067Z,19.70
2018-07-22T12:00:14.424Z,19.27
2018-07-22T12:02:42.872Z,19.53
2018-07-22T12:05:11.236Z,21.00
2018-07-22T12:07:39.845Z,23.47
2018-07-22T12:10:08.860Z,20.90
2018-07-22T12:12:37.451Z,22.60
2018-07-22T12:15:06.683Z,20.87
2018-07-22T12:17:35.536Z,20.57
2018-07-22T12:20:03.864Z,20.20
2018-07-22T12:22:32.217Z,19.47
2018-07-22T12:25:01.024Z,18.03
2018-07-22T12:27:29.669Z,16.70
2018-07-22T12:29:58.813Z,14.53
2018-07-22T12:32:28.653Z,16.30
2018-07-22T12:34:57.669Z,16.37
2018-07-22T12:37:26.267Z,17.30
2018-07-22T12:39:54.844Z,13.88
2018-07-22T12:42:23.225Z,15.70
2018-07-22T12:44:52.173Z,20.17
2018-07-22T12:47:20.667Z,13.60
2018-07-22T12:49:48.953Z,13.20
2018-07-22T12:52:17.581Z,13.53
2018-07-22T12:54:45.967Z,13.30
2018-07-22T12:57:14.361Z,15.93
2018-07-22T12:59:42.776Z,13.97
2018-07-22T13:02:11.985Z,13.23
2018-07-22T13:04:40.277Z,13.40
2018-07-22T13:07:09.187Z,11.40
2018-07-22T13:09:37.948Z,12.93
2018-07-22T13:12:06.760Z,14.00
2018-07-22T13:14:35.465Z,14.03
2018-07-22T13:17:04.167Z,14.50
2018-07-22T13:19:32.753Z,14.93
2018-07-22T13:22:01.503Z,16.37
2018-07-22T13:24:29.924Z,13.87
2018-07-22T13:26:58.544Z,13.70
2018-07-22T13:29:27.392Z,13.70
2018-07-22T13:31:56.069Z,13.97
2018-07-22T13:34:24.643Z,12.33
2018-07-22T13:36:53.313Z,14.47
2018-07-22T13:39:22.116Z,12.80
2018-07-22T13:41:50.684Z,14.30
2018-07-22T13:44:20.354Z,14.63
2018-07-22T13:46:49.317Z,14.63
2018-07-22T13:49:19.467Z,17.23
2018-07-22T13:51:47.803Z,15.90
2018-07-22T13:54:16.299Z,16.73
2018-07-22T13:56:44.871Z,20.02
2018-07-22T13:59:13.275Z,20.70
2018-07-22T14:01:41.652Z,22.70
2018-07-22T14:04:09.969Z,22.40
2018-07-22T14:06:38.623Z,23.85
2018-07-22T14:09:09.103Z,20.53
2018-07-22T14:11:37.600Z,21.93
2018-07-22T14:14:06.313Z,20.50
2018-07-22T14:16:35.269Z,24.15
2018-07-22T14:19:04.097Z,21.07
2018-07-22T14:21:32.872Z,24.90
2018-07-22T14:24:01.547Z,29.50
2018-07-22T14:26:29.905Z,23.90
2018-07-22T14:28:58.208Z,19.93
2018-07-22T14:31:26.593Z,24.67
2018-07-22T14:33:54.975Z,26.00
2018-07-22T14:36:23.506Z,26.13
2018-07-22T14:38:52.091Z,23.20
2018-07-22T14:41:20.410Z,24.53
2018-07-22T14:43:48.729Z,23.37
2018-07-22T14:46:17.174Z,20.80
2018-07-22T14:48:45.552Z,20.50
2018-07-22T14:51:13.963Z,22.13
2018-07-22T14:53:42.396Z,20.60
2018-07-22T14:56:11.718Z,21.73
2018-07-22T14:58:40.600Z,26.60
2018-07-22T15:01:12.503Z,24.60
2018-07-22T15:03:41.911Z,23.17
2018-07-22T15:06:10.277Z,26.60
2018-07-22T15:08:38.579Z,26.97
2018-07-22T15:11:07.519Z,25.40
2018-07-22T15:13:36.324Z,26.67
2018-07-22T15:16:05.348Z,26.07
2018-07-22T15:18:33.978Z,24.57
2018-07-22T15:21:02.319Z,23.27
2018-07-22T15:23:30.991Z,27.60
2018-07-22T15:25:59.952Z,26.33
2018-07-22T15:28:28.888Z,25.25
2018-07-22T15:30:57.312Z,26.70
2018-07-22T15:33:26.270Z,24.43
2018-07-22T15:35:54.835Z,28.20
2018-07-22T15:38:23.137Z,26.47
2018-07-22T15:40:51.869Z,21.00
2018-07-22T15:43:20.500Z,19.07
2018-07-22T15:45:48.976Z,24.43
2018-07-22T15:48:17.536Z,26.23
2018-07-22T15:50:45.636Z,21.60
2018-07-22T15:53:14.776Z,18.17
2018-07-22T15:55:43.531Z,17.52
2018-07-22T15:58:11.879Z,19.40
2018-07-22T16:00:40.231Z,18.03
2018-07-22T16:03:08.544Z,22.00
2018-07-22T16:05:37.235Z,19.98
2018-07-22T16:08:05.834Z,19.70
2018-07-22T16:10:34.548Z,15.17
2018-07-22T16:13:03.035Z,17.43
2018-07-22T16:15:31.375Z,16.37
2018-07-22T16:18:00.173Z,16.90
2018-07-22T16:20:28.824Z,17.07
2018-07-22T16:22:57.469Z,18.30
2018-07-22T16:25:26.503Z,16.90
2018-07-22T16:27:55.311Z,21.30
2018-07-22T16:30:23.837Z,17.00
2018-07-22T16:32:52.156Z,21.73
2018-07-22T16:35:20.824Z,18.10
2018-07-22T16:37:49.521Z,18.07
2018-07-22T16:40:17.959Z,15.00
2018-07-22T16:42:46.616Z,16.00
2018-07-22T16:45:14.958Z,17.77
2018-07-22T16:47:43.328Z,16.43
2018-07-22T16:50:11.745Z,15.40
2018-07-22T16:52:40.207Z,14.13
2018-07-22T16:55:08.855Z,15.70
2018-07-22T16:57:37.800Z,15.00
2018-07-22T17:00:06.664Z,15.00
2018-07-22T17:02:35.215Z,16.83
2018-07-22T17:05:03.831Z,16.03
2018-07-22T17:07:32.312Z,15.43
2018-07-22T17:10:00.616Z,14.93
2018-07-22T17:12:28.910Z,13.90
2018-07-22T17:14:57.012Z,15.50
2018-07-22T17:17:25.860Z,14.10
2018-07-22T17:19:54.602Z,12.40
2018-07-22T17:22:23.063Z,13.67
2018-07-22T17:24:51.865Z,12.73
2018-07-22T17:27:20.179Z,13.47
2018-07-22T17:29:48.636Z,13.13
2018-07-22T17:32:16.992Z,15.67
2018-07-22T17:34:45.500Z,14.60
2018-07-22T17:37:13.958Z,13.97
2018-07-22T17:39:42.691Z,15.07
2018-07-22T17:42:11.449Z,14.90
2018-07-22T17:44:40.161Z,16.67
2018-07-22T17:47:08.607Z,15.40
2018-07-22T17:49:37.304Z,15.05
2018-07-22T17:52:06.116Z,18.17
2018-07-22T17:54:34.424Z,18.60
2018-07-22T17:57:03.009Z,16.87
2018-07-22T17:59:31.198Z,15.83
2018-07-22T18:01:59.679Z,16.20
2018-07-22T18:04:28.175Z,17.40
2018-07-22T18:06:57.120Z,19.03
2018-07-22T18:09:25.696Z,23.98
2018-07-22T18:11:54.069Z,19.77
2018-07-22T18:14:22.804Z,17.90
2018-07-22T18:16:51.374Z,20.20
2018-07-22T18:19:20.271Z,18.90
2018-07-22T18:21:48.851Z,20.00
2018-07-22T18:24:17.483Z,19.80
2018-07-22T18:26:47.597Z,20.32
2018-07-22T18:29:16.079Z,17.80
2018-07-22T18:31:45.128Z,20.32
2018-07-22T18:34:13.724Z,17.62
2018-07-22T18:36:42.296Z,19.63
2018-07-22T18:39:11.468Z,18.40
2018-07-22T18:41:40.175Z,17.80
2018-07-22T18:44:08.466Z,19.33
2018-07-22T18:46:37.192Z,19.20
2018-07-22T18:49:06.404Z,19.57
2018-07-22T18:51:35.320Z,24.05
2018-07-22T18:54:03.927Z,51.10
2018-07-22T18:56:32.493Z,18.10
2018-07-22T18:59:01.128Z,21.00
2018-07-22T19:01:29.552Z,22.00
2018-07-22T19:03:58.200Z,19.33
2018-07-22T19:06:27.153Z,24.10
2018-07-22T19:08:55.504Z,26.13
2018-07-22T19:11:23.955Z,21.70
2018-07-22T19:13:53.028Z,23.07
2018-07-22T19:16:21.453Z,22.43
2018-07-22T19:18:49.760Z,23.50
2018-07-22T19:21:18.429Z,25.47
2018-07-22T19:23:46.776Z,20.40
2018-07-22T19:26:15.351Z,20.73
2018-07-22T19:28:43.797Z,23.17
2018-07-22T19:31:12.215Z,25.67
2018-07-22T19:33:40.560Z,27.07
2018-07-22T19:36:09.200Z,24.67
2018-07-22T19:38:37.928Z,23.45
2018-07-22T19:41:06.521Z,24.63
2018-07-22T19:43:34.909Z,21.60
2018-07-22T19:46:03.379Z,23.80
2018-07-22T19:48:32.001Z,24.97
2018-07-22T19:51:00.320Z,25.70
2018-07-22T19:53:28.848Z,27.50
2018-07-22T19:55:57.244Z,22.27
2018-07-22T19:58:25.887Z,23.03
2018-07-22T20:00:54.179Z,25.23
2018-07-22T20:03:22.538Z,29.70
2018-07-22T20:05:51.369Z,25.90
2018-07-22T20:08:19.712Z,29.30
2018-07-22T20:10:48.174Z,32.20
2018-07-22T20:13:16.964Z,31.63
2018-07-22T20:15:45.893Z,32.50
2018-07-22T20:18:15.080Z,29.30
2018-07-22T20:20:43.460Z,31.33
2018-07-22T20:23:12.235Z,27.70
2018-07-22T20:25:40.539Z,28.30
2018-07-22T20:28:08.851Z,31.90
2018-07-22T20:30:37.407Z,26.60
2018-07-22T20:33:06.080Z,27.43
2018-07-22T20:35:34.440Z,31.90
2018-07-22T20:38:02.841Z,29.20
2018-07-22T20:40:31.523Z,31.77
2018-07-22T20:43:00.455Z,30.97
2018-07-22T20:45:29.047Z,33.73
2018-07-22T20:47:57.243Z,28.87
2018-07-22T20:50:25.852Z,29.45
2018-07-22T20:52:54.167Z,39.43
2018-07-22T20:55:22.851Z,28.73
2018-07-22T20:57:51.392Z,31.83
2018-07-22T21:00:20.052Z,31.60
2018-07-22T21:02:48.833Z,30.30
2018-07-22T21:05:17.428Z,34.60
2018-07-22T21:07:45.854Z,36.63
2018-07-22T21:10:14.149Z,29.70
2018-07-22T21:12:54.908Z,31.20
2018-07-22T21:15:23.255Z,31.17
2018-07-22T21:17:52.443Z,28.27
2018-07-22T21:20:21.688Z,32.70
2018-07-22T21:22:50.789Z,30.00
2018-07-22T21:25:19.393Z,29.53
2018-07-22T21:27:48.200Z,29.70
2018-07-22T21:30:17.646Z,31.82
2018-07-22T21:32:46.259Z,30.27
2018-07-22T21:35:15.493Z,35.13
2018-07-22T21:37:43.894Z,34.53
2018-07-22T21:40:12.457Z,35.60
2018-07-22T21:42:41.289Z,33.40
2018-07-22T21:45:09.666Z,36.43
2018-07-22T21:47:37.858Z,34.43
2018-07-22T21:50:06.663Z,35.23
2018-07-22T21:52:35.271Z,31.45
2018-07-22T21:55:03.850Z,42.43
2018-07-22T21:57:32.488Z,36.37
2018-07-22T22:00:01.070Z,38.48
2018-07-22T22:02:30.637Z,35.17
2018-07-22T22:04:59.801Z,36.73
2018-07-22T22:07:28.116Z,39.80
2018-07-22T22:09:56.824Z,31.80
2018-07-22T22:12:25.444Z,34.40
2018-07-22T22:14:54.364Z,34.70
2018-07-22T22:17:22.684Z,42.87
2018-07-22T22:19:51.502Z,38.07
2018-07-22T22:22:20.415Z,34.97
2018-07-22T22:24:49.395Z,42.25
2018-07-22T22:27:18.581Z,37.47
2018-07-22T22:29:46.916Z,40.20
2018-07-22T22:32:15.868Z,44.23
2018-07-22T22:34:44.452Z,41.35
2018-07-22T22:37:12.752Z,41.77
2018-07-22T22:39:41.509Z,35.37
2018-07-22T22:42:09.921Z,37.70
2018-07-22T22:44:38.544Z,35.55
2018-07-22T22:47:07.136Z,35.73
2018-07-22T22:49:35.572Z,35.03
2018-07-22T22:52:04.406Z,35.47
2018-07-22T22:54:32.849Z,36.07
2018-07-22T22:57:01.277Z,36.23
2018-07-22T22:59:29.605Z,36.40
2018-07-22T23:01:58.283Z,36.97
2018-07-22T23:04:26.819Z,38.13
2018-07-22T23:06:55.395Z,35.00
2018-07-22T23:09:23.729Z,37.77
2018-07-22T23:11:52.400Z,36.57
2018-07-22T23:14:20.952Z,38.53
2018-07-22T23:16:49.252Z,33.90
2018-07-22T23:19:17.689Z,38.80
2018-07-22T23:21:46.881Z,37.67
2018-07-22T23:24:15.283Z,38.07
2018-07-22T23:26:43.575Z,36.13
2018-07-22T23:29:12.096Z,40.77
2018-07-22T23:31:40.599Z,40.47
2018-07-22T23:34:09.212Z,40.83
2018-07-22T23:36:37.511Z,38.53
2018-07-22T23:39:09.302Z,41.63
2018-07-22T23:41:37.963Z,37.45
2018-07-22T23:44:06.926Z,40.20
2018-07-22T23:46:35.528Z,37.57
2018-07-22T23:49:04.519Z,41.20
2018-07-22T23:51:33.177Z,37.93
2018-07-22T23:54:01.756Z,41.02
2018-07-22T23:56:30.132Z,39.17
2018-07-22T23:58:58.355Z,44.90
